createdAt,value
2022-09-06T00:00:29.656Z,25.55
2022-09-06T00:03:02.795Z,25.55
2022-09-06T00:05:35.665Z,25.54
2022-09-06T00:08:08.723Z,25.54
2022-09-06T00:10:41.463Z,25.53
2022-09-06T00:13:14.354Z,25.53
2022-09-06T00:15:47.858Z,25.53
2022-09-06T00:18:21.706Z,25.52
2022-09-06T00:20:54.371Z,25.51
2022-09-06T00:23:27.695Z,25.51
2022-09-06T00:26:00.718Z,25.51
2022-09-06T00:28:33.741Z,25.50
2022-09-06T00:31:06.925Z,25.49
2022-09-06T00:33:39.783Z,25.49
2022-09-06T00:36:12.694Z,25.49
2022-09-06T00:38:45.742Z,25.48
2022-09-06T00:41:18.754Z,25.47
2022-09-06T00:43:51.695Z,25.47
2022-09-06T00:46:24.851Z,25.46
2022-09-06T00:48:57.747Z,25.45
2022-09-06T00:51:34.669Z,25.45
2022-09-06T00:54:07.809Z,25.44
2022-09-06T00:56:40.581Z,25.44
2022-09-06T00:59:13.863Z,25.43
2022-09-06T01:01:47.826Z,25.43
2022-09-06T01:04:20.855Z,25.42
2022-09-06T01:06:53.749Z,25.42
2022-09-06T01:09:26.788Z,25.41
2022-09-06T01:11:59.799Z,25.40
2022-09-06T01:14:32.776Z,25.40
2022-09-06T01:17:05.786Z,25.39
2022-09-06T01:19:38.822Z,25.39
2022-09-06T01:22:11.842Z,25.38
2022-09-06T01:24:44.809Z,25.37
2022-09-06T01:27:17.896Z,25.37
2022-09-06T01:29:50.809Z,25.36
2022-09-06T01:32:23.772Z,25.36
2022-09-06T01:34:56.857Z,25.35
2022-09-06T01:37:29.730Z,25.34
2022-09-06T01:40:02.941Z,25.33
2022-09-06T01:42:35.799Z,25.33
2022-09-06T01:45:08.811Z,25.32
2022-09-06T01:47:41.831Z,25.32
2022-09-06T01:50:14.896Z,25.31
2022-09-06T01:52:47.826Z,25.31
2022-09-06T01:55:22.714Z,25.30
2022-09-06T01:58:09.826Z,25.29
2022-09-06T02:00:42.895Z,25.29
2022-09-06T02:03:15.541Z,25.28
2022-09-06T02:05:48.900Z,25.28
2022-09-06T02:08:21.899Z,25.28
2022-09-06T02:10:54.929Z,25.28
2022-09-06T02:13:27.832Z,25.27
2022-09-06T02:16:00.945Z,25.28
2022-09-06T02:18:33.831Z,25.28
2022-09-06T02:21:06.908Z,25.28
2022-09-06T02:23:39.936Z,25.28
2022-09-06T02:26:12.879Z,25.28
2022-09-06T02:28:45.917Z,25.29
2022-09-06T02:31:18.908Z,25.29
2022-09-06T02:33:51.917Z,25.29
2022-09-06T02:36:30.891Z,25.30
2022-09-06T02:39:03.884Z,25.30
2022-09-06T02:41:36.556Z,25.31
2022-09-06T02:44:09.967Z,25.31
2022-09-06T02:46:42.927Z,25.31
2022-09-06T02:49:15.992Z,25.31
2022-09-06T02:51:48.953Z,25.32
2022-09-06T02:54:21.971Z,25.32
2022-09-06T02:56:54.899Z,25.32
2022-09-06T02:59:27.972Z,25.33
2022-09-06T03:02:01.039Z,25.33
2022-09-06T03:04:33.993Z,25.33
2022-09-06T03:07:06.919Z,25.33
2022-09-06T03:09:39.993Z,25.33
2022-09-06T03:12:12.997Z,25.34
2022-09-06T03:14:45.870Z,25.34
2022-09-06T03:17:18.994Z,25.34
2022-09-06T03:19:51.942Z,25.35
2022-09-06T03:22:24.959Z,25.35
2022-09-06T03:24:57.922Z,25.36
2022-09-06T03:27:30.924Z,25.37
2022-09-06T03:30:03.981Z,25.37
2022-09-06T03:32:39.938Z,25.38
2022-09-06T03:35:13.013Z,25.38
2022-09-06T03:37:45.966Z,25.38
2022-09-06T03:40:19.048Z,25.39
2022-09-06T03:42:51.915Z,25.38
2022-09-06T03:45:24.973Z,25.38
2022-09-06T03:47:57.968Z,25.39
2022-09-06T03:50:31.178Z,25.39
2022-09-06T03:53:04.983Z,25.39
2022-09-06T03:55:38.069Z,25.39
2022-09-06T03:58:13.981Z,25.39
2022-09-06T04:00:48.097Z,25.39
2022-09-06T04:03:21.054Z,25.39
2022-09-06T04:05:54.045Z,25.39
2022-09-06T04:08:26.999Z,25.39
2022-09-06T04:10:59.995Z,25.39
2022-09-06T04:13:33.058Z,25.38
2022-09-06T04:16:05.994Z,25.38
2022-09-06T04:18:52.935Z,25.37
2022-09-06T04:21:26.084Z,25.37
2022-09-06T04:23:59.121Z,25.37
2022-09-06T04:26:32.043Z,25.36
2022-09-06T04:29:04.978Z,25.36
2022-09-06T04:31:38.184Z,25.35
2022-09-06T04:34:11.061Z,25.35
2022-09-06T04:36:48.185Z,25.34
2022-09-06T04:39:17.130Z,25.34
2022-09-06T04:41:50.134Z,25.33
2022-09-06T04:44:23.006Z,25.33
2022-09-06T04:46:56.224Z,25.33
2022-09-06T04:49:28.745Z,25.32
2022-09-06T04:52:01.764Z,25.32
2022-09-06T04:54:36.859Z,25.31
2022-09-06T04:57:11.071Z,25.30
2022-09-06T04:59:44.093Z,25.29
2022-09-06T05:02:17.099Z,25.28
2022-09-06T05:04:50.025Z,25.27
2022-09-06T05:07:23.061Z,25.26
2022-09-06T05:09:56.221Z,25.25
2022-09-06T05:12:30.235Z,25.24
2022-09-06T05:15:04.125Z,25.23
2022-09-06T05:17:37.202Z,25.22
2022-09-06T05:20:10.230Z,25.22
2022-09-06T05:22:57.126Z,25.21
2022-09-06T05:25:30.228Z,25.21
2022-09-06T05:28:03.190Z,25.20
2022-09-06T05:30:35.819Z,25.20
2022-09-06T05:33:08.836Z,25.20
2022-09-06T05:35:41.980Z,25.20
2022-09-06T05:38:14.866Z,25.20
2022-09-06T05:40:47.951Z,25.20
2022-09-06T05:43:21.253Z,25.19
2022-09-06T05:45:54.230Z,25.19
2022-09-06T05:48:27.130Z,25.19
2022-09-06T05:51:00.244Z,25.19
2022-09-06T05:53:33.149Z,25.19
2022-09-06T05:56:06.337Z,25.19
2022-09-06T05:58:40.231Z,25.19
2022-09-06T06:01:18.884Z,25.19
2022-09-06T06:03:52.135Z,25.19
2022-09-06T06:06:24.862Z,25.19
2022-09-06T06:08:58.081Z,25.19
2022-09-06T06:11:30.973Z,25.19
2022-09-06T06:14:04.192Z,25.19
2022-09-06T06:16:37.335Z,25.19
2022-09-06T06:19:10.008Z,25.19
2022-09-06T06:21:43.035Z,25.19
2022-09-06T06:24:16.082Z,25.19
2022-09-06T06:26:49.222Z,25.19
2022-09-06T06:29:36.150Z,25.20
2022-09-06T06:32:09.318Z,25.20
2022-09-06T06:34:41.973Z,25.21
2022-09-06T06:37:14.985Z,25.21
2022-09-06T06:39:48.367Z,25.22
2022-09-06T06:42:21.138Z,25.23
2022-09-06T06:44:54.141Z,25.23
2022-09-06T06:47:26.913Z,25.24
2022-09-06T06:50:00.242Z,25.24
2022-09-06T06:52:32.951Z,25.25
2022-09-06T06:55:06.301Z,25.25
2022-09-06T06:57:39.107Z,25.26
2022-09-06T07:00:12.045Z,25.26
2022-09-06T07:02:45.097Z,25.27
2022-09-06T07:07:50.942Z,25.28
2022-09-06T07:10:39.322Z,25.28
2022-09-06T07:12:59.240Z,25.29
2022-09-06T07:15:45.849Z,25.29
2022-09-06T07:18:18.961Z,25.30
2022-09-06T07:26:12.194Z,25.31
2022-09-06T07:28:45.020Z,25.31
2022-09-06T07:33:55.192Z,25.32
2022-09-06T07:36:23.976Z,25.33
2022-09-06T07:38:57.037Z,25.33
2022-09-06T07:41:30.041Z,25.34
2022-09-06T07:44:03.011Z,25.35
2022-09-06T07:46:36.484Z,25.35
2022-09-06T07:49:09.080Z,25.36
2022-09-06T07:51:42.269Z,25.36
2022-09-06T07:54:31.405Z,25.37
2022-09-06T07:56:48.311Z,25.37
2022-09-06T07:59:21.449Z,25.38
2022-09-06T08:01:54.396Z,25.39
2022-09-06T08:04:27.351Z,25.39
2022-09-06T08:09:33.213Z,25.40
2022-09-06T08:12:06.478Z,25.40
2022-09-06T08:14:39.214Z,25.41
2022-09-06T08:17:12.411Z,25.41
2022-09-06T08:19:45.032Z,25.41
2022-09-06T08:22:18.114Z,25.42
2022-09-06T08:24:51.181Z,25.42
2022-09-06T08:27:24.049Z,25.42
2022-09-06T08:29:57.440Z,25.43
2022-09-06T08:32:31.339Z,25.43
2022-09-06T08:35:04.363Z,25.43
2022-09-06T08:37:37.333Z,25.44
2022-09-06T08:40:10.531Z,25.44
2022-09-06T08:42:43.434Z,25.44
2022-09-06T08:45:16.357Z,25.45
2022-09-06T08:47:49.113Z,25.45
2022-09-06T08:50:22.151Z,25.45
2022-09-06T08:53:13.673Z,25.46
2022-09-06T08:55:28.381Z,25.47
2022-09-06T08:58:01.258Z,25.48
2022-09-06T09:00:34.291Z,25.48
2022-09-06T09:03:07.259Z,25.49
2022-09-06T09:05:40.290Z,25.49
2022-09-06T09:08:13.243Z,25.50
2022-09-06T09:10:46.193Z,25.50
2022-09-06T09:13:19.205Z,25.51
2022-09-06T09:15:52.610Z,25.51
2022-09-06T09:18:25.311Z,25.52
2022-09-06T09:20:58.531Z,25.53
2022-09-06T09:23:31.457Z,25.53
2022-09-06T09:26:04.501Z,25.54
2022-09-06T09:28:37.433Z,25.55
2022-09-06T09:31:10.359Z,25.56
2022-09-06T09:33:57.289Z,25.56
2022-09-06T09:36:30.187Z,25.57
2022-09-06T09:39:03.358Z,25.58
2022-09-06T09:41:36.534Z,25.58
2022-09-06T09:44:09.466Z,25.59
2022-09-06T09:46:42.515Z,25.60
2022-09-06T09:49:15.557Z,25.61
2022-09-06T09:51:48.511Z,25.61
2022-09-06T09:54:21.559Z,25.62
2022-09-06T09:56:54.541Z,25.63
2022-09-06T09:59:27.513Z,25.64
2022-09-06T10:02:00.516Z,25.64
2022-09-06T10:04:48.996Z,25.64
2022-09-06T10:09:39.635Z,25.65
2022-09-06T10:12:13.481Z,25.65
2022-09-06T10:14:46.419Z,25.66
2022-09-06T10:17:19.304Z,25.66
2022-09-06T10:19:52.608Z,25.67
2022-09-06T10:22:25.506Z,25.68
2022-09-06T10:24:58.228Z,25.68
2022-09-06T10:27:31.633Z,25.69
2022-09-06T10:30:04.620Z,25.69
2022-09-06T10:32:37.524Z,25.70
2022-09-06T10:35:10.515Z,25.71
2022-09-06T10:37:43.570Z,25.72
2022-09-06T10:40:16.559Z,25.73
2022-09-06T10:42:49.632Z,25.73
2022-09-06T10:45:22.616Z,25.74
2022-09-06T10:47:55.613Z,25.75
2022-09-06T10:50:28.587Z,25.75
2022-09-06T10:53:01.388Z,25.76
2022-09-06T10:55:34.297Z,25.76
2022-09-06T10:58:22.559Z,25.77
2022-09-06T11:00:40.579Z,25.77
2022-09-06T11:05:46.693Z,25.78
2022-09-06T11:10:52.611Z,25.79
2022-09-06T11:13:25.538Z,25.79
2022-09-06T11:15:58.534Z,25.81
2022-09-06T11:18:31.691Z,25.81
2022-09-06T11:21:04.458Z,25.82
2022-09-06T11:23:37.455Z,25.83
2022-09-06T11:26:10.360Z,25.84
2022-09-06T11:28:43.498Z,25.85
2022-09-06T11:33:49.493Z,25.87
2022-09-06T11:36:22.330Z,25.88
2022-09-06T11:38:55.346Z,25.89
2022-09-06T11:41:28.371Z,25.90
2022-09-06T11:44:01.714Z,25.92
2022-09-06T11:46:34.889Z,25.93
2022-09-06T11:49:07.683Z,25.94
2022-09-06T11:51:40.634Z,25.95
2022-09-06T11:54:13.679Z,25.96
2022-09-06T11:56:46.779Z,25.98
2022-09-06T11:59:19.732Z,25.99
2022-09-06T12:01:52.669Z,26.00
2022-09-06T12:04:25.656Z,26.02
2022-09-06T12:07:01.687Z,26.04
2022-09-06T12:09:34.773Z,26.05
2022-09-06T12:12:07.657Z,26.07
2022-09-06T12:14:40.699Z,26.09
2022-09-06T12:17:13.796Z,26.11
2022-09-06T12:19:46.756Z,26.12
2022-09-06T12:22:33.748Z,26.14
2022-09-06T12:25:06.759Z,26.16
2022-09-06T12:27:39.690Z,26.18
2022-09-06T12:30:12.566Z,26.20
2022-09-06T12:32:45.779Z,26.22
2022-09-06T12:37:51.680Z,26.26
2022-09-06T12:40:24.736Z,26.28
2022-09-06T12:42:57.690Z,26.30
2022-09-06T12:45:30.715Z,26.32
2022-09-06T12:48:03.531Z,26.34
2022-09-06T12:50:36.597Z,26.36
2022-09-06T12:53:09.688Z,26.38
2022-09-06T12:55:42.723Z,26.40
2022-09-06T12:58:15.827Z,26.42
2022-09-06T13:00:48.787Z,26.45
2022-09-06T13:03:21.833Z,26.47
2022-09-06T13:05:54.753Z,26.49
2022-09-06T13:08:27.800Z,26.51
2022-09-06T13:11:00.789Z,26.53
2022-09-06T13:13:33.736Z,26.55
2022-09-06T13:16:06.790Z,26.58
2022-09-06T13:18:39.791Z,26.60
2022-09-06T13:21:12.879Z,26.62
2022-09-06T13:23:45.747Z,26.64
2022-09-06T13:26:18.896Z,26.67
2022-09-06T13:28:51.885Z,26.69
2022-09-06T13:31:24.961Z,26.72
2022-09-06T13:33:57.902Z,26.74
2022-09-06T13:36:30.773Z,26.76
2022-09-06T13:39:03.886Z,26.79
2022-09-06T13:41:36.886Z,26.81
2022-09-06T13:44:09.823Z,26.84
2022-09-06T13:46:42.969Z,26.86
2022-09-06T13:49:15.849Z,26.89
2022-09-06T13:52:02.735Z,26.91
2022-09-06T13:54:35.833Z,26.94
2022-09-06T13:57:08.815Z,26.97
2022-09-06T13:59:41.907Z,26.99
2022-09-06T14:02:14.825Z,27.02
2022-09-06T14:04:47.927Z,27.05
2022-09-06T14:07:20.913Z,27.07
2022-09-06T14:09:53.804Z,27.10
2022-09-06T14:12:26.825Z,27.12
2022-09-06T14:14:59.944Z,27.14
2022-09-06T14:17:32.554Z,27.15
2022-09-06T14:20:05.946Z,27.17
2022-09-06T14:22:38.744Z,27.18
2022-09-06T14:25:11.778Z,27.19
2022-09-06T14:27:44.691Z,27.19
2022-09-06T14:30:17.957Z,27.18
2022-09-06T14:32:50.712Z,27.18
2022-09-06T14:35:23.572Z,27.18
2022-09-06T14:37:56.757Z,27.17
2022-09-06T14:40:29.868Z,27.16
2022-09-06T14:43:02.969Z,27.16
2022-09-06T14:45:35.928Z,27.15
2022-09-06T14:48:08.584Z,27.14
2022-09-06T14:50:41.695Z,27.13
2022-09-06T14:53:36.757Z,27.12
2022-09-06T14:55:47.984Z,27.11
2022-09-06T14:58:20.967Z,27.11
2022-09-06T15:00:53.974Z,27.10
2022-09-06T15:03:26.636Z,27.09
2022-09-06T15:05:59.872Z,27.09
2022-09-06T15:08:46.628Z,27.09
2022-09-06T15:11:19.919Z,27.08
2022-09-06T15:13:52.658Z,27.08
2022-09-06T15:16:25.618Z,27.08
2022-09-06T15:18:58.812Z,27.07
2022-09-06T15:21:31.936Z,27.07
2022-09-06T15:24:07.387Z,27.07
2022-09-06T15:26:37.936Z,27.07
2022-09-06T15:29:10.818Z,27.06
2022-09-06T15:31:43.641Z,27.06
2022-09-06T15:34:16.673Z,27.05
2022-09-06T15:36:49.730Z,27.05
2022-09-06T15:39:22.671Z,27.04
2022-09-06T15:41:55.845Z,27.03
2022-09-06T15:44:28.759Z,27.03
2022-09-06T15:47:02.062Z,27.03
2022-09-06T15:49:34.955Z,27.02
2022-09-06T15:52:08.085Z,27.02
2022-09-06T15:54:41.042Z,27.01
2022-09-06T15:57:13.987Z,27.00
2022-09-06T15:59:47.237Z,27.00
2022-09-06T16:02:20.982Z,26.99
2022-09-06T16:04:53.857Z,26.98
2022-09-06T16:07:26.700Z,26.98
2022-09-06T16:09:59.914Z,26.97
2022-09-06T16:12:32.909Z,26.96
2022-09-06T16:15:05.880Z,26.95
2022-09-06T16:17:40.006Z,26.95
2022-09-06T16:20:12.710Z,26.94
2022-09-06T16:22:45.833Z,26.93
2022-09-06T16:25:18.746Z,26.93
2022-09-06T16:27:52.128Z,26.92
2022-09-06T16:30:25.027Z,26.92
2022-09-06T16:32:57.838Z,26.91
2022-09-06T16:35:31.069Z,26.91
2022-09-06T16:38:07.310Z,26.90
2022-09-06T16:40:39.821Z,26.90
2022-09-06T16:43:12.952Z,26.89
2022-09-06T16:45:46.002Z,26.89
2022-09-06T16:48:19.053Z,26.88
2022-09-06T16:50:53.019Z,26.88
2022-09-06T16:53:26.058Z,26.87
2022-09-06T16:55:59.012Z,26.86
2022-09-06T16:58:32.065Z,26.86
2022-09-06T17:01:05.168Z,26.85
2022-09-06T17:03:38.176Z,26.85
2022-09-06T17:06:11.151Z,26.85
2022-09-06T17:08:44.059Z,26.84
2022-09-06T17:11:20.131Z,26.84
2022-09-06T17:13:52.941Z,26.83
2022-09-06T17:16:26.139Z,26.83
2022-09-06T17:18:59.167Z,26.83
2022-09-06T17:21:31.811Z,26.82
2022-09-06T17:24:05.122Z,26.82
2022-09-06T17:26:37.865Z,26.82
2022-09-06T17:29:11.178Z,26.81
2022-09-06T17:31:44.229Z,26.81
2022-09-06T17:34:17.205Z,26.81
2022-09-06T17:36:50.144Z,26.80
2022-09-06T17:39:26.124Z,26.80
2022-09-06T17:41:59.121Z,26.80
2022-09-06T17:44:33.246Z,26.80
2022-09-06T17:47:12.881Z,26.79
2022-09-06T17:49:38.997Z,26.79
2022-09-06T17:52:12.151Z,26.79
2022-09-06T17:54:45.016Z,26.78
2022-09-06T17:57:18.000Z,26.78
2022-09-06T17:59:50.985Z,26.78
2022-09-06T18:02:23.852Z,26.78
2022-09-06T18:04:57.283Z,26.78
2022-09-06T18:07:30.169Z,26.77
2022-09-06T18:10:02.889Z,26.77
2022-09-06T18:12:35.908Z,26.77
2022-09-06T18:15:09.040Z,26.77
2022-09-06T18:17:42.111Z,26.76
2022-09-06T18:20:15.003Z,26.76
2022-09-06T18:22:48.186Z,26.76
2022-09-06T18:25:20.985Z,26.75
2022-09-06T18:27:53.944Z,26.75
2022-09-06T18:30:27.916Z,26.75
2022-09-06T18:33:01.112Z,26.75
2022-09-06T18:35:34.016Z,26.75
2022-09-06T18:38:07.119Z,26.74
2022-09-06T18:40:39.908Z,26.74
2022-09-06T18:43:13.289Z,26.74
2022-09-06T18:45:46.302Z,26.73
2022-09-06T18:48:19.024Z,26.73
2022-09-06T18:50:52.000Z,26.73
2022-09-06T18:53:24.992Z,26.73
2022-09-06T18:55:58.078Z,26.73
2022-09-06T18:58:31.160Z,26.73
2022-09-06T19:01:04.155Z,26.74
2022-09-06T19:03:37.079Z,26.74
2022-09-06T19:06:10.278Z,26.75
2022-09-06T19:08:43.138Z,26.76
2022-09-06T19:11:16.443Z,26.76
2022-09-06T19:13:49.983Z,26.77
2022-09-06T19:16:23.067Z,26.77
2022-09-06T19:18:56.540Z,26.78
2022-09-06T19:21:30.200Z,26.78
2022-09-06T19:24:03.243Z,26.78
2022-09-06T19:26:36.179Z,26.79
2022-09-06T19:29:09.457Z,26.79
2022-09-06T19:31:43.499Z,26.80
2022-09-06T19:34:16.310Z,26.80
2022-09-06T19:36:49.038Z,26.81
2022-09-06T19:39:22.201Z,26.81
2022-09-06T19:41:55.304Z,26.82
2022-09-06T19:44:28.302Z,26.82
2022-09-06T19:47:01.250Z,26.82
2022-09-06T19:49:34.233Z,26.82
2022-09-06T19:52:07.062Z,26.82
2022-09-06T19:54:40.127Z,26.82
2022-09-06T19:57:16.138Z,26.82
2022-09-06T19:59:49.312Z,26.83
2022-09-06T20:02:23.471Z,26.83
2022-09-06T20:04:56.394Z,26.82
2022-09-06T20:07:29.287Z,26.82
2022-09-06T20:10:02.289Z,26.82
2022-09-06T20:12:35.139Z,26.82
2022-09-06T20:15:08.342Z,26.82
2022-09-06T20:17:41.348Z,26.83
2022-09-06T20:20:14.222Z,26.82
2022-09-06T20:22:50.284Z,26.83
2022-09-06T20:25:23.377Z,26.83
2022-09-06T20:27:56.051Z,26.83
2022-09-06T20:30:29.354Z,26.83
2022-09-06T20:33:02.354Z,26.83
2022-09-06T20:35:35.176Z,26.82
2022-09-06T20:38:09.141Z,26.82
2022-09-06T20:40:42.270Z,26.81
2022-09-06T20:43:15.483Z,26.81
2022-09-06T20:45:48.487Z,26.80
2022-09-06T20:48:21.453Z,26.80
2022-09-06T20:50:54.441Z,26.80
2022-09-06T20:53:27.399Z,26.79
2022-09-06T20:56:00.384Z,26.79
2022-09-06T20:58:33.404Z,26.78
2022-09-06T21:01:06.393Z,26.78
2022-09-06T21:03:39.481Z,26.77
2022-09-06T21:06:13.464Z,26.77
2022-09-06T21:08:46.471Z,26.76
2022-09-06T21:11:19.520Z,26.76
2022-09-06T21:13:52.484Z,26.75
2022-09-06T21:16:25.635Z,26.75
2022-09-06T21:18:59.407Z,26.74
2022-09-06T21:21:32.548Z,26.74
2022-09-06T21:24:05.422Z,26.73
2022-09-06T21:26:38.484Z,26.73
2022-09-06T21:29:11.482Z,26.72
2022-09-06T21:31:44.499Z,26.72
2022-09-06T21:34:17.549Z,26.71
2022-09-06T21:36:50.515Z,26.70
2022-09-06T21:39:23.462Z,26.69
2022-09-06T21:41:56.338Z,26.69
2022-09-06T21:44:29.490Z,26.68
2022-09-06T21:47:02.197Z,26.67
2022-09-06T21:49:35.542Z,26.67
2022-09-06T21:52:08.479Z,26.66
2022-09-06T21:54:41.552Z,26.66
2022-09-06T21:57:14.495Z,26.65
2022-09-06T21:59:47.587Z,26.64
2022-09-06T22:02:20.520Z,26.63
2022-09-06T22:04:53.556Z,26.62
2022-09-06T22:07:26.522Z,26.61
2022-09-06T22:09:59.472Z,26.60
2022-09-06T22:12:32.567Z,26.60
2022-09-06T22:15:05.521Z,26.59
2022-09-06T22:17:38.542Z,26.58
2022-09-06T22:20:11.616Z,26.57
2022-09-06T22:22:44.554Z,26.56
2022-09-06T22:25:17.598Z,26.55
2022-09-06T22:27:50.563Z,26.55
2022-09-06T22:30:25.776Z,26.54
2022-09-06T22:32:56.479Z,26.53
2022-09-06T22:35:29.595Z,26.52
2022-09-06T22:38:02.535Z,26.52
2022-09-06T22:40:35.381Z,26.51
2022-09-06T22:43:08.522Z,26.51
2022-09-06T22:45:41.593Z,26.50
2022-09-06T22:48:14.525Z,26.49
2022-09-06T22:50:47.882Z,26.48
2022-09-06T22:53:21.652Z,26.48
2022-09-06T22:55:54.624Z,26.47
2022-09-06T22:58:27.658Z,26.46
2022-09-06T23:01:00.655Z,26.45
2022-09-06T23:03:33.673Z,26.45
2022-09-06T23:06:06.632Z,26.44
2022-09-06T23:08:39.657Z,26.43
2022-09-06T23:11:12.649Z,26.43
2022-09-06T23:13:45.644Z,26.42
2022-09-06T23:16:18.798Z,26.41
2022-09-06T23:18:51.708Z,26.41
2022-09-06T23:21:24.640Z,26.40
2022-09-06T23:23:57.613Z,26.40
2022-09-06T23:26:32.654Z,26.39
2022-09-06T23:29:05.654Z,26.38
2022-09-06T23:31:38.631Z,26.38
2022-09-06T23:34:11.597Z,26.37
2022-09-06T23:36:44.719Z,26.37
2022-09-06T23:39:17.652Z,26.36
2022-09-06T23:41:50.716Z,26.35
2022-09-06T23:44:23.647Z,26.35
2022-09-06T23:46:56.801Z,26.34
2022-09-06T23:49:29.495Z,26.34
2022-09-06T23:52:02.744Z,26.34
2022-09-06T23:54:35.687Z,26.33
2022-09-06T23:57:08.353Z,26.33
2022-09-06T23:59:41.677Z,26.32
